sensor_id;sensor_type;location;lat;lon;timestamp;pressure;altitude;pressure_sealevel;temperature;humidity
35291;BME280;21411;50.024;19.220;2022-12-07T00:01:10;98494.59;;;1.68;100.00
35291;BME280;21411;50.024;19.220;2022-12-07T00:03:38;98492.84;;;1.67;100.00
35291;BME280;21411;50.024;19.220;2022-12-07T00:06:07;98495.41;;;1.69;100.00
35291;BME280;21411;50.024;19.220;2022-12-07T00:08:34;98495.58;;;1.69;100.00
35291;BME280;21411;50.024;19.220;2022-12-07T00:11:09;98486.80;;;1.69;100.00
35291;BME280;21411;50.024;19.220;2022-12-07T00:13:36;98485.76;;;1.69;100.00
35291;BME280;21411;50.024;19.220;2022-12-07T00:16:06;98485.05;;;1.69;100.00
35291;BME280;21411;50.024;19.220;2022-12-07T00:18:33;98484.02;;;1.69;100.00
35291;BME280;21411;50.024;19.220;2022-12-07T00:21:01;98479.84;;;1.68;100.00
35291;BME280;21411;50.024;19.220;2022-12-07T00:23:28;98480.39;;;1.68;100.00
35291;BME280;21411;50.024;19.220;2022-12-07T00:25:54;98479.39;;;1.67;100.00
35291;BME280;21411;50.024;19.220;2022-12-07T00:28:21;98475.38;;;1.66;100.00
35291;BME280;21411;50.024;19.220;2022-12-07T00:30:47;98476.93;;;1.67;100.00
35291;BME280;21411;50.024;19.220;2022-12-07T00:33:13;98479.17;;;1.67;100.00
35291;BME280;21411;50.024;19.220;2022-12-07T00:35:40;98479.12;;;1.69;100.00
35291;BME280;21411;50.024;19.220;2022-12-07T00:38:06;98475.88;;;1.71;100.00
35291;BME280;21411;50.024;19.220;2022-12-07T00:40:33;98473.94;;;1.72;100.00
35291;BME280;21411;50.024;19.220;2022-12-07T00:43:00;98469.84;;;1.73;100.00
35291;BME280;21411;50.024;19.220;2022-12-07T00:45:26;98465.41;;;1.74;100.00
35291;BME280;21411;50.024;19.220;2022-12-07T00:47:52;98464.33;;;1.75;100.00
35291;BME280;21411;50.024;19.220;2022-12-07T00:50:19;98462.70;;;1.77;100.00
35291;BME280;21411;50.024;19.220;2022-12-07T00:52:45;98462.14;;;1.78;100.00
35291;BME280;21411;50.024;19.220;2022-12-07T00:55:10;98461.26;;;1.78;100.00
35291;BME280;21411;50.024;19.220;2022-12-07T00:57:37;98463.52;;;1.78;100.00
35291;BME280;21411;50.024;19.220;2022-12-07T01:00:03;98464.21;;;1.78;100.00
35291;BME280;21411;50.024;19.220;2022-12-07T01:02:29;98460.52;;;1.79;100.00
35291;BME280;21411;50.024;19.220;2022-12-07T01:04:56;98461.33;;;1.81;100.00
35291;BME280;21411;50.024;19.220;2022-12-07T01:07:22;98460.39;;;1.82;100.00
35291;BME280;21411;50.024;19.220;2022-12-07T01:09:48;98458.83;;;1.82;100.00
35291;BME280;21411;50.024;19.220;2022-12-07T01:12:14;98451.27;;;1.83;100.00
35291;BME280;21411;50.024;19.220;2022-12-07T01:14:41;98447.85;;;1.84;100.00
35291;BME280;21411;50.024;19.220;2022-12-07T01:17:07;98444.47;;;1.86;100.00
35291;BME280;21411;50.024;19.220;2022-12-07T01:19:33;98439.38;;;1.86;100.00
35291;BME280;21411;50.024;19.220;2022-12-07T01:21:59;98440.59;;;1.86;100.00
35291;BME280;21411;50.024;19.220;2022-12-07T01:24:25;98439.16;;;1.87;100.00
35291;BME280;21411;50.024;19.220;2022-12-07T01:26:51;98435.08;;;1.89;100.00
35291;BME280;21411;50.024;19.220;2022-12-07T01:29:17;98434.51;;;1.90;100.00
35291;BME280;21411;50.024;19.220;2022-12-07T01:31:44;98432.50;;;1.92;100.00
35291;BME280;21411;50.024;19.220;2022-12-07T01:34:10;98432.44;;;1.93;100.00
35291;BME280;21411;50.024;19.220;2022-12-07T01:36:37;98432.58;;;1.94;100.00
35291;BME280;21411;50.024;19.220;2022-12-07T01:39:06;98430.23;;;1.96;100.00
35291;BME280;21411;50.024;19.220;2022-12-07T01:41:37;98426.35;;;1.96;100.00
35291;BME280;21411;50.024;19.220;2022-12-07T01:46:41;98425.50;;;2.00;100.00
35291;BME280;21411;50.024;19.220;2022-12-07T01:49:11;98425.41;;;2.02;100.00
35291;BME280;21411;50.024;19.220;2022-12-07T01:51:40;98424.48;;;2.03;100.00
35291;BME280;21411;50.024;19.220;2022-12-07T01:54:09;98422.89;;;2.04;100.00
35291;BME280;21411;50.024;19.220;2022-12-07T01:56:37;98423.20;;;2.05;100.00
35291;BME280;21411;50.024;19.220;2022-12-07T01:59:04;98420.90;;;2.05;100.00
35291;BME280;21411;50.024;19.220;2022-12-07T02:01:30;98418.75;;;2.07;100.00
35291;BME280;21411;50.024;19.220;2022-12-07T02:03:56;98415.70;;;2.08;100.00
35291;BME280;21411;50.024;19.220;2022-12-07T02:06:24;98417.55;;;2.10;100.00
35291;BME280;21411;50.024;19.220;2022-12-07T02:08:52;98420.61;;;2.12;100.00
35291;BME280;21411;50.024;19.220;2022-12-07T02:11:18;98418.96;;;2.14;100.00
35291;BME280;21411;50.024;19.220;2022-12-07T02:13:45;98417.31;;;2.16;100.00
35291;BME280;21411;50.024;19.220;2022-12-07T02:19:32;98416.13;;;2.19;100.00
35291;BME280;21411;50.024;19.220;2022-12-07T02:22:19;98418.00;;;2.20;100.00
35291;BME280;21411;50.024;19.220;2022-12-07T02:25:13;98418.45;;;2.22;100.00
35291;BME280;21411;50.024;19.220;2022-12-07T02:27:52;98420.98;;;2.24;100.00
35291;BME280;21411;50.024;19.220;2022-12-07T02:30:22;98419.49;;;2.26;100.00
35291;BME280;21411;50.024;19.220;2022-12-07T02:32:59;98419.98;;;2.27;100.00
35291;BME280;21411;50.024;19.220;2022-12-07T02:38:20;98414.91;;;2.31;100.00
35291;BME280;21411;50.024;19.220;2022-12-07T02:41:04;98414.55;;;2.31;100.00
35291;BME280;21411;50.024;19.220;2022-12-07T02:43:36;98414.00;;;2.32;100.00
35291;BME280;21411;50.024;19.220;2022-12-07T02:46:08;98415.71;;;2.33;100.00
35291;BME280;21411;50.024;19.220;2022-12-07T02:48:37;98411.64;;;2.34;100.00
35291;BME280;21411;50.024;19.220;2022-12-07T02:51:04;98408.66;;;2.33;100.00
35291;BME280;21411;50.024;19.220;2022-12-07T02:53:39;98406.52;;;2.34;100.00
35291;BME280;21411;50.024;19.220;2022-12-07T02:59:24;98406.63;;;2.36;100.00
35291;BME280;21411;50.024;19.220;2022-12-07T03:07:29;98412.13;;;2.39;100.00
35291;BME280;21411;50.024;19.220;2022-12-07T03:10:13;98411.40;;;2.39;100.00
35291;BME280;21411;50.024;19.220;2022-12-07T03:12:49;98408.58;;;2.40;100.00
35291;BME280;21411;50.024;19.220;2022-12-07T03:15:23;98406.29;;;2.40;100.00
35291;BME280;21411;50.024;19.220;2022-12-07T03:17:54;98405.55;;;2.41;100.00
35291;BME280;21411;50.024;19.220;2022-12-07T03:20:23;98407.11;;;2.41;100.00
35291;BME280;21411;50.024;19.220;2022-12-07T03:22:52;98400.59;;;2.42;100.00
35291;BME280;21411;50.024;19.220;2022-12-07T03:25:19;98398.45;;;2.43;100.00
35291;BME280;21411;50.024;19.220;2022-12-07T03:27:58;98397.05;;;2.43;100.00
35291;BME280;21411;50.024;19.220;2022-12-07T03:30:30;98393.67;;;2.44;100.00
35291;BME280;21411;50.024;19.220;2022-12-07T03:33:04;98390.16;;;2.44;100.00
35291;BME280;21411;50.024;19.220;2022-12-07T03:35:36;98385.38;;;2.45;100.00
35291;BME280;21411;50.024;19.220;2022-12-07T03:43:32;98385.20;;;2.46;100.00
35291;BME280;21411;50.024;19.220;2022-12-07T03:51:28;98392.79;;;2.44;100.00
35291;BME280;21411;50.024;19.220;2022-12-07T03:54:05;98395.61;;;2.44;100.00
35291;BME280;21411;50.024;19.220;2022-12-07T03:56:33;98391.10;;;2.43;100.00
35291;BME280;21411;50.024;19.220;2022-12-07T03:58:59;98387.43;;;2.42;100.00
35291;BME280;21411;50.024;19.220;2022-12-07T04:01:25;98389.90;;;2.42;100.00
35291;BME280;21411;50.024;19.220;2022-12-07T04:03:51;98390.81;;;2.41;100.00
35291;BME280;21411;50.024;19.220;2022-12-07T04:06:17;98387.23;;;2.38;100.00
35291;BME280;21411;50.024;19.220;2022-12-07T04:08:43;98384.16;;;2.37;100.00
35291;BME280;21411;50.024;19.220;2022-12-07T04:11:09;98385.59;;;2.36;100.00
35291;BME280;21411;50.024;19.220;2022-12-07T04:13:35;98384.02;;;2.36;100.00
35291;BME280;21411;50.024;19.220;2022-12-07T04:16:21;98385.11;;;2.35;100.00
35291;BME280;21411;50.024;19.220;2022-12-07T04:18:47;98386.21;;;2.34;100.00
35291;BME280;21411;50.024;19.220;2022-12-07T04:21:13;98388.14;;;2.34;100.00
35291;BME280;21411;50.024;19.220;2022-12-07T04:23:39;98386.94;;;2.33;100.00
35291;BME280;21411;50.024;19.220;2022-12-07T04:26:05;98387.80;;;2.33;100.00
35291;BME280;21411;50.024;19.220;2022-12-07T04:28:31;98386.45;;;2.33;100.00
35291;BME280;21411;50.024;19.220;2022-12-07T04:30:57;98386.99;;;2.32;100.00
35291;BME280;21411;50.024;19.220;2022-12-07T04:33:23;98388.56;;;2.32;100.00
35291;BME280;21411;50.024;19.220;2022-12-07T04:35:49;98393.84;;;2.32;100.00
35291;BME280;21411;50.024;19.220;2022-12-07T04:38:15;98395.95;;;2.32;100.00
35291;BME280;21411;50.024;19.220;2022-12-07T04:40:41;98399.67;;;2.31;100.00
35291;BME280;21411;50.024;19.220;2022-12-07T04:43:06;98400.70;;;2.28;100.00
35291;BME280;21411;50.024;19.220;2022-12-07T04:45:32;98402.80;;;2.23;100.00
35291;BME280;21411;50.024;19.220;2022-12-07T04:47:59;98402.64;;;2.19;100.00
35291;BME280;21411;50.024;19.220;2022-12-07T04:50:24;98410.23;;;2.14;100.00
35291;BME280;21411;50.024;19.220;2022-12-07T04:52:50;98412.27;;;2.07;100.00
35291;BME280;21411;50.024;19.220;2022-12-07T04:55:16;98410.10;;;1.99;100.00
35291;BME280;21411;50.024;19.220;2022-12-07T04:57:42;98411.24;;;1.93;100.00
35291;BME280;21411;50.024;19.220;2022-12-07T05:00:09;98413.30;;;1.90;100.00
35291;BME280;21411;50.024;19.220;2022-12-07T05:02:36;98416.64;;;1.85;100.00
35291;BME280;21411;50.024;19.220;2022-12-07T05:05:02;98416.94;;;1.78;100.00
35291;BME280;21411;50.024;19.220;2022-12-07T05:07:29;98421.39;;;1.72;100.00
35291;BME280;21411;50.024;19.220;2022-12-07T05:09:55;98423.21;;;1.65;100.00
35291;BME280;21411;50.024;19.220;2022-12-07T05:12:21;98423.21;;;1.61;100.00
35291;BME280;21411;50.024;19.220;2022-12-07T05:14:47;98422.99;;;1.58;100.00
35291;BME280;21411;50.024;19.220;2022-12-07T05:17:13;98418.04;;;1.55;100.00
35291;BME280;21411;50.024;19.220;2022-12-07T05:19:39;98417.77;;;1.53;100.00
35291;BME280;21411;50.024;19.220;2022-12-07T05:22:05;98417.71;;;1.50;100.00
35291;BME280;21411;50.024;19.220;2022-12-07T05:24:31;98415.80;;;1.49;100.00
35291;BME280;21411;50.024;19.220;2022-12-07T05:26:57;98418.17;;;1.47;100.00
35291;BME280;21411;50.024;19.220;2022-12-07T05:29:23;98421.23;;;1.45;100.00
35291;BME280;21411;50.024;19.220;2022-12-07T05:31:49;98422.15;;;1.44;100.00
35291;BME280;21411;50.024;19.220;2022-12-07T05:34:15;98422.98;;;1.45;100.00
35291;BME280;21411;50.024;19.220;2022-12-07T05:36:41;98427.38;;;1.44;100.00
35291;BME280;21411;50.024;19.220;2022-12-07T05:39:09;98423.44;;;1.43;100.00
35291;BME280;21411;50.024;19.220;2022-12-07T05:41:35;98424.48;;;1.43;100.00
35291;BME280;21411;50.024;19.220;2022-12-07T05:44:20;98426.79;;;1.42;100.00
35291;BME280;21411;50.024;19.220;2022-12-07T05:46:46;98427.20;;;1.40;100.00
35291;BME280;21411;50.024;19.220;2022-12-07T05:49:12;98426.86;;;1.40;100.00
35291;BME280;21411;50.024;19.220;2022-12-07T05:51:38;98427.41;;;1.40;100.00
35291;BME280;21411;50.024;19.220;2022-12-07T05:54:04;98430.27;;;1.38;100.00
35291;BME280;21411;50.024;19.220;2022-12-07T05:56:30;98430.45;;;1.38;100.00
35291;BME280;21411;50.024;19.220;2022-12-07T05:58:56;98425.41;;;1.37;100.00
35291;BME280;21411;50.024;19.220;2022-12-07T06:01:41;98426.13;;;1.37;100.00
35291;BME280;21411;50.024;19.220;2022-12-07T06:04:07;98427.52;;;1.37;100.00
35291;BME280;21411;50.024;19.220;2022-12-07T06:06:33;98425.06;;;1.36;100.00
35291;BME280;21411;50.024;19.220;2022-12-07T06:08:59;98423.68;;;1.36;100.00
35291;BME280;21411;50.024;19.220;2022-12-07T06:11:25;98425.15;;;1.34;100.00
35291;BME280;21411;50.024;19.220;2022-12-07T06:14:09;98429.25;;;1.33;100.00
35291;BME280;21411;50.024;19.220;2022-12-07T06:16:35;98428.56;;;1.32;100.00
35291;BME280;21411;50.024;19.220;2022-12-07T06:19:01;98429.59;;;1.33;100.00
35291;BME280;21411;50.024;19.220;2022-12-07T06:21:27;98429.43;;;1.33;100.00
35291;BME280;21411;50.024;19.220;2022-12-07T06:23:54;98432.39;;;1.33;100.00
35291;BME280;21411;50.024;19.220;2022-12-07T06:26:20;98430.79;;;1.34;100.00
35291;BME280;21411;50.024;19.220;2022-12-07T06:28:46;98434.95;;;1.35;100.00
35291;BME280;21411;50.024;19.220;2022-12-07T06:31:12;98434.90;;;1.36;100.00
35291;BME280;21411;50.024;19.220;2022-12-07T06:33:38;98437.69;;;1.36;100.00
35291;BME280;21411;50.024;19.220;2022-12-07T06:36:04;98437.50;;;1.37;100.00
35291;BME280;21411;50.024;19.220;2022-12-07T06:38:30;98435.91;;;1.37;100.00
35291;BME280;21411;50.024;19.220;2022-12-07T06:40:56;98442.53;;;1.38;100.00
35291;BME280;21411;50.024;19.220;2022-12-07T06:43:22;98446.55;;;1.38;100.00
35291;BME280;21411;50.024;19.220;2022-12-07T06:45:48;98445.52;;;1.37;100.00
35291;BME280;21411;50.024;19.220;2022-12-07T06:48:14;98446.80;;;1.36;100.00
35291;BME280;21411;50.024;19.220;2022-12-07T06:50:40;98451.85;;;1.36;100.00
35291;BME280;21411;50.024;19.220;2022-12-07T06:53:06;98453.48;;;1.35;100.00
35291;BME280;21411;50.024;19.220;2022-12-07T06:55:33;98454.02;;;1.35;100.00
35291;BME280;21411;50.024;19.220;2022-12-07T06:57:59;98459.10;;;1.34;100.00
35291;BME280;21411;50.024;19.220;2022-12-07T07:00:25;98462.65;;;1.33;100.00
35291;BME280;21411;50.024;19.220;2022-12-07T07:02:51;98463.08;;;1.31;100.00
35291;BME280;21411;50.024;19.220;2022-12-07T07:05:17;98468.40;;;1.29;100.00
35291;BME280;21411;50.024;19.220;2022-12-07T07:07:43;98468.31;;;1.27;100.00
35291;BME280;21411;50.024;19.220;2022-12-07T07:10:09;98467.79;;;1.27;100.00
35291;BME280;21411;50.024;19.220;2022-12-07T07:12:36;98466.29;;;1.29;100.00
35291;BME280;21411;50.024;19.220;2022-12-07T07:15:04;98466.56;;;1.31;100.00
35291;BME280;21411;50.024;19.220;2022-12-07T07:17:30;98462.60;;;1.34;100.00
35291;BME280;21411;50.024;19.220;2022-12-07T07:19:56;98465.68;;;1.36;100.00
35291;BME280;21411;50.024;19.220;2022-12-07T07:22:22;98465.92;;;1.39;100.00
35291;BME280;21411;50.024;19.220;2022-12-07T07:24:48;98464.09;;;1.41;100.00
35291;BME280;21411;50.024;19.220;2022-12-07T07:27:14;98465.17;;;1.45;100.00
35291;BME280;21411;50.024;19.220;2022-12-07T07:29:40;98457.83;;;1.49;100.00
35291;BME280;21411;50.024;19.220;2022-12-07T07:32:06;98456.50;;;1.52;100.00
35291;BME280;21411;50.024;19.220;2022-12-07T07:34:33;98461.02;;;1.57;100.00
35291;BME280;21411;50.024;19.220;2022-12-07T07:36:59;98464.96;;;1.59;100.00
35291;BME280;21411;50.024;19.220;2022-12-07T07:39:25;98467.42;;;1.63;100.00
35291;BME280;21411;50.024;19.220;2022-12-07T07:41:51;98471.70;;;1.66;100.00
35291;BME280;21411;50.024;19.220;2022-12-07T07:44:17;98471.31;;;1.67;100.00
35291;BME280;21411;50.024;19.220;2022-12-07T07:46:43;98466.58;;;1.67;100.00
35291;BME280;21411;50.024;19.220;2022-12-07T07:49:10;98469.33;;;1.68;100.00
35291;BME280;21411;50.024;19.220;2022-12-07T07:51:36;98469.10;;;1.70;100.00
35291;BME280;21411;50.024;19.220;2022-12-07T07:54:02;98474.27;;;1.72;100.00
35291;BME280;21411;50.024;19.220;2022-12-07T07:56:29;98471.36;;;1.74;100.00
35291;BME280;21411;50.024;19.220;2022-12-07T07:58:55;98465.38;;;1.76;100.00
35291;BME280;21411;50.024;19.220;2022-12-07T08:01:21;98470.27;;;1.80;100.00
35291;BME280;21411;50.024;19.220;2022-12-07T08:03:48;98471.86;;;1.85;100.00
35291;BME280;21411;50.024;19.220;2022-12-07T08:06:14;98473.67;;;1.87;100.00
35291;BME280;21411;50.024;19.220;2022-12-07T08:08:40;98473.52;;;1.91;100.00
35291;BME280;21411;50.024;19.220;2022-12-07T08:11:07;98475.11;;;1.95;100.00
35291;BME280;21411;50.024;19.220;2022-12-07T08:13:33;98478.52;;;1.97;100.00
35291;BME280;21411;50.024;19.220;2022-12-07T08:16:04;98477.29;;;2.02;100.00
35291;BME280;21411;50.024;19.220;2022-12-07T08:18:30;98475.77;;;2.05;100.00
35291;BME280;21411;50.024;19.220;2022-12-07T08:20:59;98477.40;;;2.08;100.00
35291;BME280;21411;50.024;19.220;2022-12-07T08:23:26;98476.02;;;2.11;100.00
35291;BME280;21411;50.024;19.220;2022-12-07T08:25:52;98477.27;;;2.15;100.00
35291;BME280;21411;50.024;19.220;2022-12-07T08:28:19;98478.71;;;2.18;100.00
35291;BME280;21411;50.024;19.220;2022-12-07T08:30:44;98481.30;;;2.23;100.00
35291;BME280;21411;50.024;19.220;2022-12-07T08:33:10;98485.54;;;2.27;100.00
35291;BME280;21411;50.024;19.220;2022-12-07T08:35:37;98488.81;;;2.28;100.00
35291;BME280;21411;50.024;19.220;2022-12-07T08:38:03;98488.14;;;2.28;100.00
35291;BME280;21411;50.024;19.220;2022-12-07T08:40:30;98487.14;;;2.31;100.00
35291;BME280;21411;50.024;19.220;2022-12-07T08:42:56;98489.66;;;2.33;100.00
35291;BME280;21411;50.024;19.220;2022-12-07T08:45:22;98489.42;;;2.35;100.00
35291;BME280;21411;50.024;19.220;2022-12-07T08:47:59;98490.41;;;2.36;100.00
35291;BME280;21411;50.024;19.220;2022-12-07T08:50:28;98487.64;;;2.40;100.00
35291;BME280;21411;50.024;19.220;2022-12-07T08:52:57;98482.71;;;2.45;100.00
35291;BME280;21411;50.024;19.220;2022-12-07T08:55:24;98480.95;;;2.49;100.00
35291;BME280;21411;50.024;19.220;2022-12-07T08:57:51;98482.44;;;2.55;100.00
35291;BME280;21411;50.024;19.220;2022-12-07T09:00:17;98483.27;;;2.60;100.00
35291;BME280;21411;50.024;19.220;2022-12-07T09:02:45;98483.64;;;2.64;100.00
35291;BME280;21411;50.024;19.220;2022-12-07T09:05:12;98480.23;;;2.66;100.00
35291;BME280;21411;50.024;19.220;2022-12-07T09:07:43;98489.59;;;2.68;100.00
35291;BME280;21411;50.024;19.220;2022-12-07T09:10:13;98486.67;;;2.67;100.00
35291;BME280;21411;50.024;19.220;2022-12-07T09:12:39;98483.81;;;2.64;100.00
35291;BME280;21411;50.024;19.220;2022-12-07T09:15:05;98479.10;;;2.63;100.00
35291;BME280;21411;50.024;19.220;2022-12-07T09:17:37;98480.30;;;2.64;100.00
35291;BME280;21411;50.024;19.220;2022-12-07T09:20:05;98473.84;;;2.63;100.00
35291;BME280;21411;50.024;19.220;2022-12-07T09:22:33;98477.36;;;2.63;100.00
35291;BME280;21411;50.024;19.220;2022-12-07T09:25:00;98475.43;;;2.62;100.00
35291;BME280;21411;50.024;19.220;2022-12-07T09:27:26;98474.69;;;2.64;100.00
35291;BME280;21411;50.024;19.220;2022-12-07T09:29:52;98472.80;;;2.67;100.00
35291;BME280;21411;50.024;19.220;2022-12-07T09:32:19;98472.37;;;2.69;100.00
35291;BME280;21411;50.024;19.220;2022-12-07T09:34:45;98470.73;;;2.70;100.00
35291;BME280;21411;50.024;19.220;2022-12-07T09:37:11;98469.88;;;2.70;100.00
35291;BME280;21411;50.024;19.220;2022-12-07T09:39:38;98466.95;;;2.69;100.00
35291;BME280;21411;50.024;19.220;2022-12-07T09:42:04;98465.55;;;2.72;100.00
35291;BME280;21411;50.024;19.220;2022-12-07T09:44:31;98463.15;;;2.75;100.00
35291;BME280;21411;50.024;19.220;2022-12-07T09:46:58;98459.30;;;2.79;100.00
35291;BME280;21411;50.024;19.220;2022-12-07T09:49:28;98453.08;;;2.85;100.00
35291;BME280;21411;50.024;19.220;2022-12-07T09:52:03;98452.77;;;2.88;100.00
35291;BME280;21411;50.024;19.220;2022-12-07T09:54:46;98448.91;;;2.92;100.00
35291;BME280;21411;50.024;19.220;2022-12-07T09:57:13;98447.71;;;2.95;100.00
35291;BME280;21411;50.024;19.220;2022-12-07T09:59:39;98446.27;;;2.96;100.00
35291;BME280;21411;50.024;19.220;2022-12-07T10:02:37;98445.68;;;2.97;100.00
35291;BME280;21411;50.024;19.220;2022-12-07T10:05:06;98442.34;;;2.97;100.00
35291;BME280;21411;50.024;19.220;2022-12-07T10:07:33;98437.95;;;2.97;100.00
35291;BME280;21411;50.024;19.220;2022-12-07T10:10:02;98433.50;;;3.02;100.00
35291;BME280;21411;50.024;19.220;2022-12-07T10:12:28;98432.61;;;3.11;100.00
35291;BME280;21411;50.024;19.220;2022-12-07T10:15:03;98431.54;;;3.19;100.00
35291;BME280;21411;50.024;19.220;2022-12-07T10:17:54;98428.32;;;3.28;100.00
35291;BME280;21411;50.024;19.220;2022-12-07T10:20:24;98424.82;;;3.35;100.00
35291;BME280;21411;50.024;19.220;2022-12-07T10:22:59;98420.58;;;3.43;100.00
35291;BME280;21411;50.024;19.220;2022-12-07T10:25:32;98417.42;;;3.54;100.00
35291;BME280;21411;50.024;19.220;2022-12-07T10:28:11;98413.12;;;3.60;100.00
35291;BME280;21411;50.024;19.220;2022-12-07T10:30:54;98409.98;;;3.63;100.00
35291;BME280;21411;50.024;19.220;2022-12-07T10:33:36;98401.63;;;3.71;100.00
35291;BME280;21411;50.024;19.220;2022-12-07T10:36:18;98400.71;;;3.80;100.00
35291;BME280;21411;50.024;19.220;2022-12-07T10:38:53;98397.38;;;3.90;100.00
35291;BME280;21411;50.024;19.220;2022-12-07T10:41:24;98389.14;;;4.04;100.00
35291;BME280;21411;50.024;19.220;2022-12-07T10:43:53;98384.15;;;4.23;100.00
35291;BME280;21411;50.024;19.220;2022-12-07T10:49:24;98379.75;;;4.50;100.00
35291;BME280;21411;50.024;19.220;2022-12-07T10:52:04;98380.67;;;4.63;100.00
35291;BME280;21411;50.024;19.220;2022-12-07T10:57:26;98376.45;;;4.60;100.00
35291;BME280;21411;50.024;19.220;2022-12-07T11:00:10;98373.70;;;4.52;100.00
35291;BME280;21411;50.024;19.220;2022-12-07T11:02:57;98376.82;;;4.53;100.00
35291;BME280;21411;50.024;19.220;2022-12-07T11:05:35;98376.02;;;4.51;100.00
35291;BME280;21411;50.024;19.220;2022-12-07T11:08:18;98374.69;;;4.46;100.00
35291;BME280;21411;50.024;19.220;2022-12-07T11:11:15;98369.13;;;4.45;100.00
35291;BME280;21411;50.024;19.220;2022-12-07T11:13:59;98371.33;;;4.63;100.00
35291;BME280;21411;50.024;19.220;2022-12-07T11:19:20;98363.93;;;4.83;100.00
35291;BME280;21411;50.024;19.220;2022-12-07T11:22:01;98363.39;;;4.83;100.00
35291;BME280;21411;50.024;19.220;2022-12-07T11:24:50;98367.51;;;4.75;100.00
35291;BME280;21411;50.024;19.220;2022-12-07T11:27:37;98370.02;;;4.71;100.00
35291;BME280;21411;50.024;19.220;2022-12-07T11:30:34;98369.42;;;4.70;100.00
35291;BME280;21411;50.024;19.220;2022-12-07T11:33:20;98370.52;;;4.65;100.00
35291;BME280;21411;50.024;19.220;2022-12-07T11:36:02;98368.23;;;4.59;100.00
35291;BME280;21411;50.024;19.220;2022-12-07T11:38:42;98366.30;;;4.52;100.00
35291;BME280;21411;50.024;19.220;2022-12-07T11:41:09;98361.52;;;4.42;100.00
35291;BME280;21411;50.024;19.220;2022-12-07T11:43:54;98357.27;;;4.40;100.00
35291;BME280;21411;50.024;19.220;2022-12-07T11:46:24;98353.86;;;4.38;100.00
35291;BME280;21411;50.024;19.220;2022-12-07T11:51:42;98349.77;;;4.28;100.00
35291;BME280;21411;50.024;19.220;2022-12-07T11:54:15;98345.92;;;4.28;100.00
35291;BME280;21411;50.024;19.220;2022-12-07T11:56:45;98344.97;;;4.29;100.00
35291;BME280;21411;50.024;19.220;2022-12-07T11:59:23;98342.84;;;4.30;100.00
35291;BME280;21411;50.024;19.220;2022-12-07T12:01:58;98340.77;;;4.25;100.00
35291;BME280;21411;50.024;19.220;2022-12-07T12:04:49;98345.65;;;4.19;100.00
35291;BME280;21411;50.024;19.220;2022-12-07T12:07:26;98345.27;;;4.13;100.00
35291;BME280;21411;50.024;19.220;2022-12-07T12:10:04;98345.85;;;4.09;100.00
35291;BME280;21411;50.024;19.220;2022-12-07T12:18:51;98349.23;;;4.11;100.00
35291;BME280;21411;50.024;19.220;2022-12-07T12:21:26;98351.33;;;4.15;100.00
35291;BME280;21411;50.024;19.220;2022-12-07T12:24:04;98352.06;;;4.18;100.00
35291;BME280;21411;50.024;19.220;2022-12-07T12:26:36;98348.09;;;4.20;100.00
35291;BME280;21411;50.024;19.220;2022-12-07T12:29:27;98349.02;;;4.19;100.00
35291;BME280;21411;50.024;19.220;2022-12-07T12:32:15;98349.20;;;4.12;100.00
35291;BME280;21411;50.024;19.220;2022-12-07T12:37:47;98359.05;;;4.12;100.00
35291;BME280;21411;50.024;19.220;2022-12-07T12:42:48;98357.05;;;4.20;100.00
35291;BME280;21411;50.024;19.220;2022-12-07T12:45:24;98354.78;;;4.26;100.00
35291;BME280;21411;50.024;19.220;2022-12-07T12:48:00;98355.94;;;4.35;100.00
35291;BME280;21411;50.024;19.220;2022-12-07T12:50:27;98353.22;;;4.40;100.00
35291;BME280;21411;50.024;19.220;2022-12-07T12:52:58;98344.78;;;4.43;100.00
35291;BME280;21411;50.024;19.220;2022-12-07T12:55:28;98341.77;;;4.44;100.00
35291;BME280;21411;50.024;19.220;2022-12-07T13:00:45;98336.21;;;4.43;100.00
35291;BME280;21411;50.024;19.220;2022-12-07T13:03:30;98335.57;;;4.41;100.00
35291;BME280;21411;50.024;19.220;2022-12-07T13:06:29;98331.52;;;4.38;100.00
35291;BME280;21411;50.024;19.220;2022-12-07T13:08:59;98334.57;;;4.33;100.00
35291;BME280;21411;50.024;19.220;2022-12-07T13:11:32;98332.38;;;4.28;100.00
35291;BME280;21411;50.024;19.220;2022-12-07T13:17:12;98330.90;;;4.09;100.00
35291;BME280;21411;50.024;19.220;2022-12-07T13:25:09;98332.05;;;3.86;100.00
35291;BME280;21411;50.024;19.220;2022-12-07T13:27:41;98333.52;;;3.85;100.00
35291;BME280;21411;50.024;19.220;2022-12-07T13:30:28;98334.41;;;3.88;100.00
35291;BME280;21411;50.024;19.220;2022-12-07T13:32:57;98341.91;;;3.93;100.00
35291;BME280;21411;50.024;19.220;2022-12-07T13:35:35;98345.77;;;3.93;100.00
35291;BME280;21411;50.024;19.220;2022-12-07T13:38:22;98343.33;;;3.89;100.00
35291;BME280;21411;50.024;19.220;2022-12-07T13:41:16;98349.24;;;3.87;100.00
35291;BME280;21411;50.024;19.220;2022-12-07T13:43:50;98356.63;;;3.87;100.00
35291;BME280;21411;50.024;19.220;2022-12-07T13:46:20;98357.10;;;3.88;100.00
35291;BME280;21411;50.024;19.220;2022-12-07T13:48:50;98361.29;;;3.85;100.00
35291;BME280;21411;50.024;19.220;2022-12-07T13:51:25;98363.20;;;3.79;100.00
35291;BME280;21411;50.024;19.220;2022-12-07T13:53:54;98362.15;;;3.75;100.00
35291;BME280;21411;50.024;19.220;2022-12-07T13:56:26;98357.91;;;3.71;100.00
35291;BME280;21411;50.024;19.220;2022-12-07T13:58:54;98357.75;;;3.68;100.00
35291;BME280;21411;50.024;19.220;2022-12-07T14:01:22;98357.70;;;3.62;100.00
35291;BME280;21411;50.024;19.220;2022-12-07T14:03:50;98356.59;;;3.56;100.00
35291;BME280;21411;50.024;19.220;2022-12-07T14:06:26;98357.23;;;3.49;100.00
35291;BME280;21411;50.024;19.220;2022-12-07T14:09:18;98356.65;;;3.43;100.00